sensor_id;sensor_type;location;lat;lon;timestamp;P1;durP1;ratioP1;P2;durP2;ratioP2
16430;SDS011;8325;49.284;7.238;2023-03-23T05:04:57;1.98;;;1.83;;
16430;SDS011;8325;49.284;7.238;2023-03-23T05:09:10;2.03;;;1.58;;
16430;SDS011;8325;49.284;7.238;2023-03-23T05:13:22;3.70;;;1.70;;
16430;SDS011;8325;49.284;7.238;2023-03-23T05:17:36;2.97;;;1.90;;
16430;SDS011;8325;49.284;7.238;2023-03-23T05:21:58;2.72;;;1.90;;
16430;SDS011;8325;49.284;7.238;2023-03-23T05:26:14;2.58;;;1.80;;
16430;SDS011;8325;49.284;7.238;2023-03-23T05:30:25;2.28;;;1.77;;
16430;SDS011;8325;49.284;7.238;2023-03-23T05:34:42;2.88;;;1.73;;
16430;SDS011;8325;49.284;7.238;2023-03-23T05:38:53;2.70;;;1.60;;
16430;SDS011;8325;49.284;7.238;2023-03-23T05:43:07;2.22;;;1.70;;
16430;SDS011;8325;49.284;7.238;2023-03-23T05:47:32;2.20;;;1.70;;
16430;SDS011;8325;49.284;7.238;2023-03-23T05:51:48;2.40;;;1.83;;
16430;SDS011;8325;49.284;7.238;2023-03-23T05:56:04;2.90;;;1.80;;
16430;SDS011;8325;49.284;7.238;2023-03-23T06:00:38;2.72;;;2.05;;
16430;SDS011;8325;49.284;7.238;2023-03-23T06:05:00;2.05;;;1.63;;
16430;SDS011;8325;49.284;7.238;2023-03-23T06:09:14;3.83;;;1.80;;
16430;SDS011;8325;49.284;7.238;2023-03-23T06:13:47;3.20;;;1.55;;
16430;SDS011;8325;49.284;7.238;2023-03-23T06:17:59;1.60;;;1.50;;
16430;SDS011;8325;49.284;7.238;2023-03-23T06:22:17;2.78;;;1.85;;
16430;SDS011;8325;49.284;7.238;2023-03-23T06:26:48;2.80;;;2.15;;
16430;SDS011;8325;49.284;7.238;2023-03-23T06:31:04;3.22;;;2.60;;
16430;SDS011;8325;49.284;7.238;2023-03-23T06:35:18;2.85;;;2.60;;
16430;SDS011;8325;49.284;7.238;2023-03-23T06:39:31;4.43;;;3.53;;
16430;SDS011;8325;49.284;7.238;2023-03-23T06:44:05;4.63;;;3.50;;
16430;SDS011;8325;49.284;7.238;2023-03-23T06:48:17;3.15;;;1.92;;
16430;SDS011;8325;49.284;7.238;2023-03-23T06:52:28;3.83;;;1.77;;
16430;SDS011;8325;49.284;7.238;2023-03-23T06:56:39;3.40;;;1.98;;
16430;SDS011;8325;49.284;7.238;2023-03-23T07:00:55;2.03;;;1.80;;
16430;SDS011;8325;49.284;7.238;2023-03-23T07:05:12;3.15;;;1.98;;
16430;SDS011;8325;49.284;7.238;2023-03-23T07:09:25;2.33;;;1.92;;
16430;SDS011;8325;49.284;7.238;2023-03-23T07:13:36;3.85;;;1.95;;
16430;SDS011;8325;49.284;7.238;2023-03-23T07:17:48;2.90;;;1.67;;
16430;SDS011;8325;49.284;7.238;2023-03-23T07:22:15;2.45;;;1.75;;
16430;SDS011;8325;49.284;7.238;2023-03-23T07:26:30;2.13;;;1.77;;
16430;SDS011;8325;49.284;7.238;2023-03-23T07:30:43;2.38;;;1.98;;
16430;SDS011;8325;49.284;7.238;2023-03-23T07:34:54;2.20;;;1.63;;
16430;SDS011;8325;49.284;7.238;2023-03-23T07:39:14;2.05;;;1.85;;
16430;SDS011;8325;49.284;7.238;2023-03-23T07:43:26;2.53;;;1.83;;
16430;SDS011;8325;49.284;7.238;2023-03-23T07:47:57;3.20;;;1.98;;
16430;SDS011;8325;49.284;7.238;2023-03-23T07:52:08;2.20;;;1.83;;
16430;SDS011;8325;49.284;7.238;2023-03-23T07:56:21;2.28;;;1.80;;
16430;SDS011;8325;49.284;7.238;2023-03-23T08:00:37;2.20;;;1.83;;
16430;SDS011;8325;49.284;7.238;2023-03-23T08:04:52;4.10;;;2.28;;
16430;SDS011;8325;49.284;7.238;2023-03-23T08:09:06;1.92;;;1.73;;
16430;SDS011;8325;49.284;7.238;2023-03-23T08:13:37;2.13;;;1.73;;
16430;SDS011;8325;49.284;7.238;2023-03-23T08:18:07;2.85;;;1.65;;
16430;SDS011;8325;49.284;7.238;2023-03-23T08:22:41;2.75;;;1.80;;
16430;SDS011;8325;49.284;7.238;2023-03-23T08:27:23;3.15;;;1.95;;
16430;SDS011;8325;49.284;7.238;2023-03-23T08:31:52;2.58;;;1.98;;
16430;SDS011;8325;49.284;7.238;2023-03-23T08:36:22;3.88;;;1.98;;
16430;SDS011;8325;49.284;7.238;2023-03-23T08:40:44;1.80;;;1.70;;
16430;SDS011;8325;49.284;7.238;2023-03-23T08:45:23;2.55;;;1.98;;
16430;SDS011;8325;49.284;7.238;2023-03-23T08:49:46;2.00;;;1.80;;
16430;SDS011;8325;49.284;7.238;2023-03-23T08:54:12;2.50;;;1.92;;
16430;SDS011;8325;49.284;7.238;2023-03-23T08:58:42;3.28;;;2.13;;
16430;SDS011;8325;49.284;7.238;2023-03-23T09:02:59;4.32;;;2.25;;
16430;SDS011;8325;49.284;7.238;2023-03-23T09:07:19;2.30;;;1.90;;
16430;SDS011;8325;49.284;7.238;2023-03-23T09:11:30;3.00;;;2.03;;
16430;SDS011;8325;49.284;7.238;2023-03-23T09:15:41;3.28;;;2.20;;
16430;SDS011;8325;49.284;7.238;2023-03-23T09:19:51;2.60;;;1.92;;
16430;SDS011;8325;49.284;7.238;2023-03-23T09:24:02;2.92;;;2.20;;
16430;SDS011;8325;49.284;7.238;2023-03-23T09:28:12;3.08;;;2.50;;
16430;SDS011;8325;49.284;7.238;2023-03-23T09:32:23;3.50;;;2.38;;
16430;SDS011;8325;49.284;7.238;2023-03-23T09:36:34;2.83;;;2.10;;
16430;SDS011;8325;49.284;7.238;2023-03-23T09:40:47;2.38;;;2.05;;
16430;SDS011;8325;49.284;7.238;2023-03-23T09:45:15;2.00;;;1.80;;
16430;SDS011;8325;49.284;7.238;2023-03-23T09:49:36;2.55;;;1.65;;
16430;SDS011;8325;49.284;7.238;2023-03-23T09:53:52;2.05;;;1.88;;
16430;SDS011;8325;49.284;7.238;2023-03-23T09:58:10;2.97;;;2.35;;
16430;SDS011;8325;49.284;7.238;2023-03-23T10:02:28;2.72;;;2.40;;
16430;SDS011;8325;49.284;7.238;2023-03-23T10:06:45;2.42;;;2.22;;
16430;SDS011;8325;49.284;7.238;2023-03-23T10:15:14;2.72;;;2.30;;
16430;SDS011;8325;49.284;7.238;2023-03-23T10:23:58;2.28;;;1.92;;
16430;SDS011;8325;49.284;7.238;2023-03-23T10:37:25;2.10;;;1.90;;
16430;SDS011;8325;49.284;7.238;2023-03-23T10:41:40;3.55;;;2.08;;
16430;SDS011;8325;49.284;7.238;2023-03-23T10:45:54;2.90;;;2.13;;
16430;SDS011;8325;49.284;7.238;2023-03-23T10:50:13;2.63;;;2.10;;
16430;SDS011;8325;49.284;7.238;2023-03-23T10:54:32;4.35;;;2.65;;
16430;SDS011;8325;49.284;7.238;2023-03-23T10:58:48;2.60;;;2.40;;
16430;SDS011;8325;49.284;7.238;2023-03-23T11:07:18;3.47;;;2.80;;
16430;SDS011;8325;49.284;7.238;2023-03-23T11:11:40;2.53;;;1.95;;
16430;SDS011;8325;49.284;7.238;2023-03-23T11:15:59;2.67;;;2.15;;
16430;SDS011;8325;49.284;7.238;2023-03-23T11:20:11;2.35;;;1.80;;
16430;SDS011;8325;49.284;7.238;2023-03-23T11:24:23;2.00;;;1.80;;
16430;SDS011;8325;49.284;7.238;2023-03-23T11:28:48;1.60;;;1.50;;
16430;SDS011;8325;49.284;7.238;2023-03-23T11:33:05;1.88;;;1.45;;
16430;SDS011;8325;49.284;7.238;2023-03-23T11:41:59;1.40;;;1.30;;
16430;SDS011;8325;49.284;7.238;2023-03-23T11:46:26;1.23;;;1.10;;
16430;SDS011;8325;49.284;7.238;2023-03-23T11:50:52;2.75;;;1.30;;
16430;SDS011;8325;49.284;7.238;2023-03-23T11:55:10;1.73;;;1.40;;
16430;SDS011;8325;49.284;7.238;2023-03-23T11:59:29;2.28;;;1.50;;
16430;SDS011;8325;49.284;7.238;2023-03-23T12:04:00;1.85;;;1.30;;
16430;SDS011;8325;49.284;7.238;2023-03-23T12:21:53;2.53;;;1.50;;
16430;SDS011;8325;49.284;7.238;2023-03-23T12:39:52;1.90;;;1.35;;
16430;SDS011;8325;49.284;7.238;2023-03-23T12:44:29;2.53;;;1.60;;
16430;SDS011;8325;49.284;7.238;2023-03-23T12:53:24;1.98;;;1.70;;
16430;SDS011;8325;49.284;7.238;2023-03-23T13:06:38;2.65;;;1.70;;
16430;SDS011;8325;49.284;7.238;2023-03-23T13:10:51;1.88;;;1.48;;
16430;SDS011;8325;49.284;7.238;2023-03-23T13:24:29;1.55;;;1.45;;
16430;SDS011;8325;49.284;7.238;2023-03-23T13:28:55;1.75;;;1.55;;
16430;SDS011;8325;49.284;7.238;2023-03-23T13:33:11;3.42;;;1.67;;
16430;SDS011;8325;49.284;7.238;2023-03-23T13:37:26;3.05;;;1.58;;
16430;SDS011;8325;49.284;7.238;2023-03-23T13:41:47;2.42;;;1.98;;
16430;SDS011;8325;49.284;7.238;2023-03-23T13:46:53;2.13;;;1.48;;
16430;SDS011;8325;49.284;7.238;2023-03-23T13:59:54;1.75;;;1.20;;
16430;SDS011;8325;49.284;7.238;2023-03-23T14:04:09;1.45;;;1.17;;
16430;SDS011;8325;49.284;7.238;2023-03-23T14:12:39;3.10;;;1.08;;
16430;SDS011;8325;49.284;7.238;2023-03-23T14:16:50;2.63;;;1.45;;
16430;SDS011;8325;49.284;7.238;2023-03-23T14:21:04;2.22;;;1.20;;
16430;SDS011;8325;49.284;7.238;2023-03-23T14:25:17;1.50;;;1.40;;
16430;SDS011;8325;49.284;7.238;2023-03-23T14:29:30;2.33;;;1.52;;
16430;SDS011;8325;49.284;7.238;2023-03-23T14:33:41;2.03;;;1.80;;
16430;SDS011;8325;49.284;7.238;2023-03-23T14:37:53;1.40;;;1.20;;
16430;SDS011;8325;49.284;7.238;2023-03-23T14:42:05;1.80;;;1.60;;
16430;SDS011;8325;49.284;7.238;2023-03-23T14:46:21;2.10;;;1.55;;
16430;SDS011;8325;49.284;7.238;2023-03-23T14:54:45;4.32;;;2.05;;
16430;SDS011;8325;49.284;7.238;2023-03-23T14:59:00;3.63;;;2.20;;
16430;SDS011;8325;49.284;7.238;2023-03-23T15:03:14;2.10;;;1.60;;
16430;SDS011;8325;49.284;7.238;2023-03-23T15:07:30;2.70;;;1.77;;
16430;SDS011;8325;49.284;7.238;2023-03-23T15:11:49;2.58;;;2.20;;
16430;SDS011;8325;49.284;7.238;2023-03-23T15:16:11;3.83;;;2.00;;
16430;SDS011;8325;49.284;7.238;2023-03-23T15:20:48;4.97;;;2.60;;
16430;SDS011;8325;49.284;7.238;2023-03-23T15:25:08;1.63;;;1.52;;
16430;SDS011;8325;49.284;7.238;2023-03-23T15:29:21;2.13;;;1.60;;
16430;SDS011;8325;49.284;7.238;2023-03-23T15:33:34;2.33;;;1.65;;
16430;SDS011;8325;49.284;7.238;2023-03-23T15:37:47;2.65;;;1.75;;
16430;SDS011;8325;49.284;7.238;2023-03-23T15:42:18;2.75;;;1.95;;
16430;SDS011;8325;49.284;7.238;2023-03-23T15:46:31;2.55;;;1.60;;
16430;SDS011;8325;49.284;7.238;2023-03-23T15:50:41;2.85;;;1.80;;
16430;SDS011;8325;49.284;7.238;2023-03-23T15:54:52;2.17;;;1.50;;
16430;SDS011;8325;49.284;7.238;2023-03-23T15:59:03;1.40;;;1.27;;
16430;SDS011;8325;49.284;7.238;2023-03-23T16:03:17;2.25;;;1.90;;
16430;SDS011;8325;49.284;7.238;2023-03-23T16:07:34;2.92;;;1.65;;
16430;SDS011;8325;49.284;7.238;2023-03-23T16:11:45;2.10;;;1.90;;
16430;SDS011;8325;49.284;7.238;2023-03-23T16:15:57;1.88;;;1.60;;
16430;SDS011;8325;49.284;7.238;2023-03-23T16:20:19;3.80;;;1.98;;
16430;SDS011;8325;49.284;7.238;2023-03-23T16:24:32;2.72;;;1.88;;
16430;SDS011;8325;49.284;7.238;2023-03-23T16:28:44;1.88;;;1.77;;
16430;SDS011;8325;49.284;7.238;2023-03-23T16:32:55;1.60;;;1.50;;
16430;SDS011;8325;49.284;7.238;2023-03-23T16:37:09;1.80;;;1.70;;
16430;SDS011;8325;49.284;7.238;2023-03-23T16:41:22;3.08;;;2.15;;
16430;SDS011;8325;49.284;7.238;2023-03-23T16:45:33;3.17;;;2.58;;
16430;SDS011;8325;49.284;7.238;2023-03-23T16:49:45;3.67;;;2.83;;
16430;SDS011;8325;49.284;7.238;2023-03-23T16:53:57;4.65;;;2.38;;
16430;SDS011;8325;49.284;7.238;2023-03-23T16:58:08;2.53;;;2.30;;
16430;SDS011;8325;49.284;7.238;2023-03-23T17:02:27;5.15;;;3.42;;
16430;SDS011;8325;49.284;7.238;2023-03-23T17:06:39;8.20;;;5.00;;
16430;SDS011;8325;49.284;7.238;2023-03-23T17:10:51;10.10;;;5.40;;
16430;SDS011;8325;49.284;7.238;2023-03-23T17:15:03;6.85;;;5.63;;
16430;SDS011;8325;49.284;7.238;2023-03-23T17:19:15;5.13;;;4.30;;
16430;SDS011;8325;49.284;7.238;2023-03-23T17:23:27;15.57;;;9.45;;
16430;SDS011;8325;49.284;7.238;2023-03-23T17:27:39;10.48;;;7.82;;
16430;SDS011;8325;49.284;7.238;2023-03-23T17:31:51;12.43;;;8.20;;
16430;SDS011;8325;49.284;7.238;2023-03-23T17:36:03;11.45;;;7.70;;
16430;SDS011;8325;49.284;7.238;2023-03-23T17:40:15;10.90;;;6.85;;
16430;SDS011;8325;49.284;7.238;2023-03-23T17:44:26;4.80;;;4.05;;
16430;SDS011;8325;49.284;7.238;2023-03-23T17:48:38;5.32;;;4.63;;
16430;SDS011;8325;49.284;7.238;2023-03-23T17:52:50;5.55;;;4.93;;
16430;SDS011;8325;49.284;7.238;2023-03-23T17:57:01;8.68;;;6.55;;
16430;SDS011;8325;49.284;7.238;2023-03-23T18:01:14;8.82;;;6.53;;
16430;SDS011;8325;49.284;7.238;2023-03-23T18:05:26;7.18;;;5.80;;
16430;SDS011;8325;49.284;7.238;2023-03-23T18:09:38;7.40;;;6.47;;
16430;SDS011;8325;49.284;7.238;2023-03-23T18:13:49;5.80;;;5.20;;
16430;SDS011;8325;49.284;7.238;2023-03-23T18:18:02;8.32;;;5.82;;
16430;SDS011;8325;49.284;7.238;2023-03-23T18:22:15;6.22;;;5.60;;
16430;SDS011;8325;49.284;7.238;2023-03-23T18:26:27;8.98;;;6.25;;
16430;SDS011;8325;49.284;7.238;2023-03-23T18:30:39;8.90;;;6.25;;
16430;SDS011;8325;49.284;7.238;2023-03-23T18:34:50;6.60;;;5.80;;
16430;SDS011;8325;49.284;7.238;2023-03-23T18:39:02;8.77;;;5.43;;
16430;SDS011;8325;49.284;7.238;2023-03-23T18:43:15;9.63;;;5.90;;
16430;SDS011;8325;49.284;7.238;2023-03-23T18:47:27;7.30;;;5.28;;
16430;SDS011;8325;49.284;7.238;2023-03-23T18:51:38;5.10;;;4.50;;
16430;SDS011;8325;49.284;7.238;2023-03-23T18:55:50;6.05;;;4.93;;
16430;SDS011;8325;49.284;7.238;2023-03-23T19:00:02;5.28;;;4.25;;
16430;SDS011;8325;49.284;7.238;2023-03-23T19:04:15;8.73;;;5.13;;
16430;SDS011;8325;49.284;7.238;2023-03-23T19:08:27;7.35;;;6.28;;
16430;SDS011;8325;49.284;7.238;2023-03-23T19:12:39;11.45;;;7.80;;
16430;SDS011;8325;49.284;7.238;2023-03-23T19:16:51;13.55;;;8.70;;
16430;SDS011;8325;49.284;7.238;2023-03-23T19:21:03;19.60;;;13.10;;
16430;SDS011;8325;49.284;7.238;2023-03-23T19:25:18;12.52;;;9.25;;
16430;SDS011;8325;49.284;7.238;2023-03-23T19:29:29;8.10;;;6.63;;
16430;SDS011;8325;49.284;7.238;2023-03-23T19:33:41;7.15;;;5.60;;
16430;SDS011;8325;49.284;7.238;2023-03-23T19:37:53;6.00;;;4.70;;
16430;SDS011;8325;49.284;7.238;2023-03-23T19:42:06;6.68;;;4.93;;
16430;SDS011;8325;49.284;7.238;2023-03-23T19:46:18;5.32;;;4.82;;
16430;SDS011;8325;49.284;7.238;2023-03-23T19:50:29;6.68;;;5.70;;
16430;SDS011;8325;49.284;7.238;2023-03-23T19:54:43;6.25;;;5.10;;
16430;SDS011;8325;49.284;7.238;2023-03-23T19:58:54;8.27;;;5.95;;
16430;SDS011;8325;49.284;7.238;2023-03-23T20:03:06;7.97;;;5.80;;
16430;SDS011;8325;49.284;7.238;2023-03-23T20:07:19;7.45;;;5.55;;
16430;SDS011;8325;49.284;7.238;2023-03-23T20:11:31;7.68;;;5.60;;
16430;SDS011;8325;49.284;7.238;2023-03-23T20:15:50;13.95;;;7.63;;
16430;SDS011;8325;49.284;7.238;2023-03-23T20:20:02;13.25;;;9.60;;
16430;SDS011;8325;49.284;7.238;2023-03-23T20:24:20;12.23;;;8.15;;
16430;SDS011;8325;49.284;7.238;2023-03-23T20:28:32;12.45;;;8.95;;
16430;SDS011;8325;49.284;7.238;2023-03-23T20:32:43;7.65;;;6.18;;
16430;SDS011;8325;49.284;7.238;2023-03-23T20:36:57;7.00;;;6.28;;
16430;SDS011;8325;49.284;7.238;2023-03-23T20:41:09;9.30;;;7.25;;
16430;SDS011;8325;49.284;7.238;2023-03-23T20:45:22;13.00;;;9.13;;
16430;SDS011;8325;49.284;7.238;2023-03-23T20:49:34;15.20;;;10.52;;
16430;SDS011;8325;49.284;7.238;2023-03-23T20:53:47;17.58;;;10.48;;
16430;SDS011;8325;49.284;7.238;2023-03-23T20:57:59;9.48;;;7.35;;
16430;SDS011;8325;49.284;7.238;2023-03-23T21:02:11;8.10;;;6.00;;
16430;SDS011;8325;49.284;7.238;2023-03-23T21:06:25;6.68;;;5.32;;
16430;SDS011;8325;49.284;7.238;2023-03-23T21:10:38;6.57;;;5.18;;
16430;SDS011;8325;49.284;7.238;2023-03-23T21:14:50;6.57;;;4.60;;
16430;SDS011;8325;49.284;7.238;2023-03-23T21:19:02;4.50;;;3.88;;
16430;SDS011;8325;49.284;7.238;2023-03-23T21:23:15;8.80;;;4.65;;
16430;SDS011;8325;49.284;7.238;2023-03-23T21:27:29;5.55;;;4.25;;
16430;SDS011;8325;49.284;7.238;2023-03-23T21:31:41;9.65;;;4.75;;
16430;SDS011;8325;49.284;7.238;2023-03-23T21:35:53;7.70;;;5.18;;
16430;SDS011;8325;49.284;7.238;2023-03-23T21:40:05;5.10;;;4.32;;
16430;SDS011;8325;49.284;7.238;2023-03-23T21:44:23;6.85;;;4.57;;
16430;SDS011;8325;49.284;7.238;2023-03-23T21:48:35;6.72;;;4.95;;
16430;SDS011;8325;49.284;7.238;2023-03-23T21:52:49;5.78;;;4.60;;
16430;SDS011;8325;49.284;7.238;2023-03-23T21:57:01;6.43;;;4.90;;
16430;SDS011;8325;49.284;7.238;2023-03-23T22:01:12;10.30;;;6.03;;
16430;SDS011;8325;49.284;7.238;2023-03-23T22:05:24;9.57;;;6.43;;
16430;SDS011;8325;49.284;7.238;2023-03-23T22:09:35;7.97;;;5.65;;
16430;SDS011;8325;49.284;7.238;2023-03-23T22:13:49;6.28;;;5.03;;
16430;SDS011;8325;49.284;7.238;2023-03-23T22:18:02;7.22;;;4.68;;
16430;SDS011;8325;49.284;7.238;2023-03-23T22:22:13;5.13;;;4.63;;
16430;SDS011;8325;49.284;7.238;2023-03-23T22:26:25;6.55;;;4.57;;
